sensor_id;sensor_type;location;lat;lon;timestamp;P1;durP1;ratioP1;P2;durP2;ratioP2
295;SDS011;132;48.770;9.200;2023-02-07T00:00:13;14.35;;;8.80;;
295;SDS011;132;48.770;9.200;2023-02-07T00:02:43;13.65;;;8.07;;
295;SDS011;132;48.770;9.200;2023-02-07T00:05:10;15.23;;;8.45;;
295;SDS011;132;48.770;9.200;2023-02-07T00:07:37;15.57;;;8.65;;
295;SDS011;132;48.770;9.200;2023-02-07T00:10:05;15.13;;;9.13;;
295;SDS011;132;48.770;9.200;2023-02-07T00:12:32;16.50;;;8.95;;
295;SDS011;132;48.770;9.200;2023-02-07T00:14:59;14.02;;;8.52;;
295;SDS011;132;48.770;9.200;2023-02-07T00:17:27;13.70;;;7.80;;
295;SDS011;132;48.770;9.200;2023-02-07T00:19:54;16.60;;;9.63;;
295;SDS011;132;48.770;9.200;2023-02-07T00:22:20;14.40;;;8.55;;
295;SDS011;132;48.770;9.200;2023-02-07T00:24:47;16.13;;;8.45;;
295;SDS011;132;48.770;9.200;2023-02-07T00:27:13;14.27;;;8.63;;
295;SDS011;132;48.770;9.200;2023-02-07T00:29:39;17.20;;;8.50;;
295;SDS011;132;48.770;9.200;2023-02-07T00:32:06;15.43;;;8.73;;
295;SDS011;132;48.770;9.200;2023-02-07T00:34:33;15.00;;;8.93;;
295;SDS011;132;48.770;9.200;2023-02-07T00:37:01;13.02;;;7.50;;
295;SDS011;132;48.770;9.200;2023-02-07T00:39:30;15.70;;;8.43;;
295;SDS011;132;48.770;9.200;2023-02-07T00:41:56;15.55;;;8.95;;
295;SDS011;132;48.770;9.200;2023-02-07T00:44:23;14.48;;;7.43;;
295;SDS011;132;48.770;9.200;2023-02-07T00:46:50;15.98;;;7.95;;
295;SDS011;132;48.770;9.200;2023-02-07T00:49:17;14.27;;;7.78;;
295;SDS011;132;48.770;9.200;2023-02-07T00:51:44;13.80;;;7.53;;
295;SDS011;132;48.770;9.200;2023-02-07T00:54:10;12.55;;;7.47;;
295;SDS011;132;48.770;9.200;2023-02-07T00:56:36;15.07;;;8.30;;
295;SDS011;132;48.770;9.200;2023-02-07T00:59:03;15.93;;;7.90;;
295;SDS011;132;48.770;9.200;2023-02-07T01:01:29;12.63;;;8.00;;
295;SDS011;132;48.770;9.200;2023-02-07T01:03:56;13.02;;;7.22;;
295;SDS011;132;48.770;9.200;2023-02-07T01:06:23;16.67;;;8.10;;
295;SDS011;132;48.770;9.200;2023-02-07T01:08:50;16.13;;;8.43;;
295;SDS011;132;48.770;9.200;2023-02-07T01:11:22;16.92;;;7.65;;
295;SDS011;132;48.770;9.200;2023-02-07T01:13:48;17.05;;;8.50;;
295;SDS011;132;48.770;9.200;2023-02-07T01:18:44;18.15;;;9.60;;
295;SDS011;132;48.770;9.200;2023-02-07T01:21:14;15.02;;;9.50;;
295;SDS011;132;48.770;9.200;2023-02-07T01:23:42;16.73;;;8.95;;
295;SDS011;132;48.770;9.200;2023-02-07T01:26:09;17.73;;;9.43;;
295;SDS011;132;48.770;9.200;2023-02-07T01:28:36;21.13;;;9.80;;
295;SDS011;132;48.770;9.200;2023-02-07T01:31:10;16.83;;;9.38;;
295;SDS011;132;48.770;9.200;2023-02-07T01:33:37;23.27;;;10.07;;
295;SDS011;132;48.770;9.200;2023-02-07T01:36:13;17.92;;;9.73;;
295;SDS011;132;48.770;9.200;2023-02-07T01:38:41;16.10;;;9.50;;
295;SDS011;132;48.770;9.200;2023-02-07T01:41:08;21.92;;;10.65;;
295;SDS011;132;48.770;9.200;2023-02-07T01:43:53;19.48;;;10.45;;
295;SDS011;132;48.770;9.200;2023-02-07T01:46:26;23.70;;;11.32;;
295;SDS011;132;48.770;9.200;2023-02-07T01:48:54;23.80;;;11.45;;
295;SDS011;132;48.770;9.200;2023-02-07T01:51:25;22.45;;;11.35;;
295;SDS011;132;48.770;9.200;2023-02-07T01:53:53;20.65;;;11.60;;
295;SDS011;132;48.770;9.200;2023-02-07T01:56:22;25.52;;;12.90;;
295;SDS011;132;48.770;9.200;2023-02-07T01:58:50;22.90;;;11.82;;
295;SDS011;132;48.770;9.200;2023-02-07T02:01:22;24.35;;;12.48;;
295;SDS011;132;48.770;9.200;2023-02-07T02:03:53;22.98;;;11.18;;
295;SDS011;132;48.770;9.200;2023-02-07T02:06:20;22.83;;;12.43;;
295;SDS011;132;48.770;9.200;2023-02-07T02:08:49;23.20;;;12.30;;
295;SDS011;132;48.770;9.200;2023-02-07T02:11:27;22.90;;;12.15;;
295;SDS011;132;48.770;9.200;2023-02-07T02:33:42;20.90;;;11.85;;
295;SDS011;132;48.770;9.200;2023-02-07T02:36:33;22.80;;;11.90;;
295;SDS011;132;48.770;9.200;2023-02-07T02:39:19;22.88;;;13.15;;
295;SDS011;132;48.770;9.200;2023-02-07T02:41:58;25.05;;;12.85;;
295;SDS011;132;48.770;9.200;2023-02-07T02:44:37;22.00;;;12.98;;
295;SDS011;132;48.770;9.200;2023-02-07T02:47:10;19.67;;;11.90;;
295;SDS011;132;48.770;9.200;2023-02-07T02:49:36;26.05;;;14.38;;
295;SDS011;132;48.770;9.200;2023-02-07T02:52:04;26.20;;;13.55;;
295;SDS011;132;48.770;9.200;2023-02-07T02:54:31;22.58;;;13.20;;
295;SDS011;132;48.770;9.200;2023-02-07T02:57:39;23.75;;;13.10;;
295;SDS011;132;48.770;9.200;2023-02-07T03:00:13;28.15;;;14.43;;
295;SDS011;132;48.770;9.200;2023-02-07T03:02:59;26.52;;;13.70;;
295;SDS011;132;48.770;9.200;2023-02-07T03:05:34;29.48;;;14.20;;
295;SDS011;132;48.770;9.200;2023-02-07T03:08:04;22.25;;;13.23;;
295;SDS011;132;48.770;9.200;2023-02-07T03:18:46;25.35;;;13.55;;
295;SDS011;132;48.770;9.200;2023-02-07T03:24:32;25.38;;;14.40;;
295;SDS011;132;48.770;9.200;2023-02-07T03:27:01;31.90;;;15.60;;
295;SDS011;132;48.770;9.200;2023-02-07T03:29:31;27.10;;;14.55;;
295;SDS011;132;48.770;9.200;2023-02-07T03:32:01;27.70;;;15.48;;
295;SDS011;132;48.770;9.200;2023-02-07T03:34:32;26.40;;;14.68;;
295;SDS011;132;48.770;9.200;2023-02-07T03:37:13;27.40;;;15.57;;
295;SDS011;132;48.770;9.200;2023-02-07T03:39:41;27.67;;;14.88;;
295;SDS011;132;48.770;9.200;2023-02-07T03:42:10;27.08;;;15.30;;
295;SDS011;132;48.770;9.200;2023-02-07T03:44:58;29.27;;;15.25;;
295;SDS011;132;48.770;9.200;2023-02-07T03:47:26;29.13;;;16.10;;
295;SDS011;132;48.770;9.200;2023-02-07T03:49:53;26.17;;;13.82;;
295;SDS011;132;48.770;9.200;2023-02-07T03:52:20;25.10;;;15.20;;
295;SDS011;132;48.770;9.200;2023-02-07T03:54:47;24.25;;;13.90;;
295;SDS011;132;48.770;9.200;2023-02-07T03:57:13;28.30;;;14.68;;
295;SDS011;132;48.770;9.200;2023-02-07T03:59:40;32.17;;;16.70;;
295;SDS011;132;48.770;9.200;2023-02-07T04:02:06;26.30;;;13.90;;
295;SDS011;132;48.770;9.200;2023-02-07T04:04:32;27.83;;;15.02;;
295;SDS011;132;48.770;9.200;2023-02-07T04:06:59;27.33;;;15.05;;
295;SDS011;132;48.770;9.200;2023-02-07T04:09:25;26.48;;;13.98;;
295;SDS011;132;48.770;9.200;2023-02-07T04:11:52;27.25;;;14.40;;
295;SDS011;132;48.770;9.200;2023-02-07T04:14:18;27.40;;;13.95;;
295;SDS011;132;48.770;9.200;2023-02-07T04:16:46;26.77;;;14.35;;
295;SDS011;132;48.770;9.200;2023-02-07T04:19:13;26.48;;;14.93;;
295;SDS011;132;48.770;9.200;2023-02-07T04:21:41;29.27;;;15.50;;
295;SDS011;132;48.770;9.200;2023-02-07T04:24:07;26.75;;;14.68;;
295;SDS011;132;48.770;9.200;2023-02-07T04:26:33;26.60;;;15.00;;
295;SDS011;132;48.770;9.200;2023-02-07T04:29:00;26.63;;;15.07;;
295;SDS011;132;48.770;9.200;2023-02-07T04:31:26;24.45;;;13.00;;
295;SDS011;132;48.770;9.200;2023-02-07T04:33:53;24.15;;;12.95;;
295;SDS011;132;48.770;9.200;2023-02-07T04:36:19;29.92;;;14.52;;
295;SDS011;132;48.770;9.200;2023-02-07T04:38:47;24.85;;;14.05;;
295;SDS011;132;48.770;9.200;2023-02-07T04:41:13;25.23;;;12.93;;
295;SDS011;132;48.770;9.200;2023-02-07T04:43:40;25.67;;;13.63;;
295;SDS011;132;48.770;9.200;2023-02-07T04:46:06;23.63;;;13.13;;
295;SDS011;132;48.770;9.200;2023-02-07T04:48:34;30.58;;;13.45;;
295;SDS011;132;48.770;9.200;2023-02-07T04:51:05;22.05;;;12.43;;
295;SDS011;132;48.770;9.200;2023-02-07T04:53:32;22.70;;;13.23;;
295;SDS011;132;48.770;9.200;2023-02-07T04:55:58;30.48;;;12.40;;
295;SDS011;132;48.770;9.200;2023-02-07T04:58:25;21.30;;;12.90;;
295;SDS011;132;48.770;9.200;2023-02-07T05:00:52;24.52;;;12.35;;
295;SDS011;132;48.770;9.200;2023-02-07T05:03:19;22.35;;;12.98;;
295;SDS011;132;48.770;9.200;2023-02-07T05:05:46;20.73;;;12.13;;
295;SDS011;132;48.770;9.200;2023-02-07T05:08:12;22.90;;;12.32;;
295;SDS011;132;48.770;9.200;2023-02-07T05:10:39;21.20;;;11.70;;
295;SDS011;132;48.770;9.200;2023-02-07T05:13:06;20.45;;;11.38;;
295;SDS011;132;48.770;9.200;2023-02-07T05:15:33;21.63;;;11.80;;
295;SDS011;132;48.770;9.200;2023-02-07T05:17:59;23.67;;;13.57;;
295;SDS011;132;48.770;9.200;2023-02-07T05:20:26;24.42;;;11.90;;
295;SDS011;132;48.770;9.200;2023-02-07T05:22:52;18.85;;;10.80;;
295;SDS011;132;48.770;9.200;2023-02-07T05:25:19;21.90;;;11.10;;
295;SDS011;132;48.770;9.200;2023-02-07T05:27:45;19.45;;;11.15;;
295;SDS011;132;48.770;9.200;2023-02-07T05:30:12;20.90;;;11.55;;
295;SDS011;132;48.770;9.200;2023-02-07T05:32:38;22.80;;;11.05;;
295;SDS011;132;48.770;9.200;2023-02-07T05:35:23;17.35;;;10.82;;
295;SDS011;132;48.770;9.200;2023-02-07T05:37:49;19.77;;;10.63;;
295;SDS011;132;48.770;9.200;2023-02-07T05:40:16;19.65;;;10.85;;
295;SDS011;132;48.770;9.200;2023-02-07T05:42:43;21.20;;;11.50;;
295;SDS011;132;48.770;9.200;2023-02-07T05:45:09;20.35;;;10.35;;
295;SDS011;132;48.770;9.200;2023-02-07T05:47:36;19.35;;;11.50;;
295;SDS011;132;48.770;9.200;2023-02-07T05:50:02;23.63;;;11.35;;
295;SDS011;132;48.770;9.200;2023-02-07T05:52:29;20.52;;;11.48;;
295;SDS011;132;48.770;9.200;2023-02-07T05:54:55;21.33;;;11.60;;
295;SDS011;132;48.770;9.200;2023-02-07T05:57:22;20.23;;;11.20;;
295;SDS011;132;48.770;9.200;2023-02-07T05:59:48;21.30;;;11.70;;
295;SDS011;132;48.770;9.200;2023-02-07T06:02:15;21.13;;;11.43;;
295;SDS011;132;48.770;9.200;2023-02-07T06:04:41;22.40;;;11.15;;
295;SDS011;132;48.770;9.200;2023-02-07T06:07:08;18.48;;;10.88;;
295;SDS011;132;48.770;9.200;2023-02-07T06:09:34;17.42;;;10.32;;
295;SDS011;132;48.770;9.200;2023-02-07T06:12:00;20.90;;;10.48;;
295;SDS011;132;48.770;9.200;2023-02-07T06:14:27;21.10;;;10.85;;
295;SDS011;132;48.770;9.200;2023-02-07T06:16:53;21.08;;;11.00;;
295;SDS011;132;48.770;9.200;2023-02-07T06:19:19;20.02;;;10.23;;
295;SDS011;132;48.770;9.200;2023-02-07T06:21:46;20.08;;;10.70;;
295;SDS011;132;48.770;9.200;2023-02-07T06:24:13;21.60;;;10.48;;
295;SDS011;132;48.770;9.200;2023-02-07T06:26:40;20.27;;;10.60;;
295;SDS011;132;48.770;9.200;2023-02-07T06:29:07;18.27;;;11.15;;
295;SDS011;132;48.770;9.200;2023-02-07T06:31:33;17.25;;;10.00;;
295;SDS011;132;48.770;9.200;2023-02-07T06:33:59;19.42;;;10.25;;
295;SDS011;132;48.770;9.200;2023-02-07T06:36:26;17.85;;;10.10;;
295;SDS011;132;48.770;9.200;2023-02-07T06:38:52;18.83;;;10.13;;
295;SDS011;132;48.770;9.200;2023-02-07T06:41:20;19.70;;;11.50;;
295;SDS011;132;48.770;9.200;2023-02-07T06:43:47;19.30;;;11.18;;
295;SDS011;132;48.770;9.200;2023-02-07T06:46:13;21.30;;;11.70;;
295;SDS011;132;48.770;9.200;2023-02-07T06:48:40;19.00;;;11.05;;
295;SDS011;132;48.770;9.200;2023-02-07T06:51:06;20.58;;;10.15;;
295;SDS011;132;48.770;9.200;2023-02-07T06:53:33;19.83;;;10.10;;
295;SDS011;132;48.770;9.200;2023-02-07T06:55:59;19.65;;;10.95;;
295;SDS011;132;48.770;9.200;2023-02-07T06:58:25;19.40;;;10.80;;
295;SDS011;132;48.770;9.200;2023-02-07T07:00:52;20.42;;;10.95;;
295;SDS011;132;48.770;9.200;2023-02-07T07:03:18;18.40;;;10.63;;
295;SDS011;132;48.770;9.200;2023-02-07T07:05:45;25.02;;;10.70;;
295;SDS011;132;48.770;9.200;2023-02-07T07:08:11;24.70;;;12.23;;
295;SDS011;132;48.770;9.200;2023-02-07T07:10:43;22.02;;;10.90;;
295;SDS011;132;48.770;9.200;2023-02-07T07:13:09;22.58;;;11.73;;
295;SDS011;132;48.770;9.200;2023-02-07T07:15:36;21.58;;;11.45;;
295;SDS011;132;48.770;9.200;2023-02-07T07:18:02;23.30;;;11.23;;
295;SDS011;132;48.770;9.200;2023-02-07T07:20:28;25.38;;;11.73;;
295;SDS011;132;48.770;9.200;2023-02-07T07:22:55;22.30;;;11.88;;
295;SDS011;132;48.770;9.200;2023-02-07T07:25:21;20.45;;;10.57;;
295;SDS011;132;48.770;9.200;2023-02-07T07:27:48;22.48;;;11.50;;
295;SDS011;132;48.770;9.200;2023-02-07T07:30:14;28.67;;;11.95;;
295;SDS011;132;48.770;9.200;2023-02-07T07:32:41;24.90;;;12.05;;
295;SDS011;132;48.770;9.200;2023-02-07T07:35:07;23.38;;;11.90;;
295;SDS011;132;48.770;9.200;2023-02-07T07:37:33;21.67;;;11.70;;
295;SDS011;132;48.770;9.200;2023-02-07T07:40:00;20.58;;;12.55;;
295;SDS011;132;48.770;9.200;2023-02-07T07:42:26;22.30;;;12.15;;
295;SDS011;132;48.770;9.200;2023-02-07T07:45:11;24.15;;;12.23;;
295;SDS011;132;48.770;9.200;2023-02-07T07:47:38;25.25;;;12.88;;
295;SDS011;132;48.770;9.200;2023-02-07T07:50:05;28.30;;;12.43;;
295;SDS011;132;48.770;9.200;2023-02-07T07:52:32;22.20;;;12.90;;
295;SDS011;132;48.770;9.200;2023-02-07T07:55:00;28.15;;;13.98;;
295;SDS011;132;48.770;9.200;2023-02-07T07:57:26;27.33;;;13.90;;
295;SDS011;132;48.770;9.200;2023-02-07T07:59:53;28.50;;;13.98;;
295;SDS011;132;48.770;9.200;2023-02-07T08:02:20;29.45;;;14.75;;
295;SDS011;132;48.770;9.200;2023-02-07T08:04:47;30.58;;;14.77;;
295;SDS011;132;48.770;9.200;2023-02-07T08:07:14;28.30;;;14.77;;
295;SDS011;132;48.770;9.200;2023-02-07T08:09:40;25.85;;;13.73;;
295;SDS011;132;48.770;9.200;2023-02-07T08:12:06;27.52;;;12.60;;
295;SDS011;132;48.770;9.200;2023-02-07T08:14:33;35.50;;;15.25;;
295;SDS011;132;48.770;9.200;2023-02-07T08:16:59;29.13;;;14.25;;
295;SDS011;132;48.770;9.200;2023-02-07T08:19:26;23.63;;;12.75;;
295;SDS011;132;48.770;9.200;2023-02-07T08:21:52;26.52;;;12.32;;
295;SDS011;132;48.770;9.200;2023-02-07T08:24:18;27.80;;;14.30;;
295;SDS011;132;48.770;9.200;2023-02-07T08:26:45;26.35;;;13.43;;
295;SDS011;132;48.770;9.200;2023-02-07T08:29:11;29.92;;;13.23;;
295;SDS011;132;48.770;9.200;2023-02-07T08:31:37;31.50;;;13.60;;
295;SDS011;132;48.770;9.200;2023-02-07T08:34:04;29.73;;;13.10;;
295;SDS011;132;48.770;9.200;2023-02-07T08:36:30;26.60;;;13.23;;
295;SDS011;132;48.770;9.200;2023-02-07T08:38:57;22.00;;;12.30;;
295;SDS011;132;48.770;9.200;2023-02-07T08:41:24;25.27;;;12.70;;
295;SDS011;132;48.770;9.200;2023-02-07T08:43:50;39.10;;;18.88;;
295;SDS011;132;48.770;9.200;2023-02-07T08:46:17;25.90;;;13.90;;
295;SDS011;132;48.770;9.200;2023-02-07T08:48:43;27.45;;;12.93;;
295;SDS011;132;48.770;9.200;2023-02-07T08:51:10;26.67;;;12.95;;
295;SDS011;132;48.770;9.200;2023-02-07T08:53:36;24.65;;;12.38;;
295;SDS011;132;48.770;9.200;2023-02-07T08:56:02;27.40;;;12.85;;
295;SDS011;132;48.770;9.200;2023-02-07T08:58:29;26.50;;;12.25;;
295;SDS011;132;48.770;9.200;2023-02-07T09:00:55;22.10;;;11.73;;
295;SDS011;132;48.770;9.200;2023-02-07T09:03:22;21.08;;;12.13;;
295;SDS011;132;48.770;9.200;2023-02-07T09:05:48;23.45;;;11.60;;
295;SDS011;132;48.770;9.200;2023-02-07T09:08:14;20.10;;;11.40;;
295;SDS011;132;48.770;9.200;2023-02-07T09:10:41;19.85;;;11.60;;
295;SDS011;132;48.770;9.200;2023-02-07T09:13:08;19.88;;;11.55;;
295;SDS011;132;48.770;9.200;2023-02-07T09:15:34;24.88;;;11.88;;
295;SDS011;132;48.770;9.200;2023-02-07T09:18:00;38.38;;;11.48;;
295;SDS011;132;48.770;9.200;2023-02-07T09:20:27;29.50;;;12.25;;
295;SDS011;132;48.770;9.200;2023-02-07T09:22:53;23.33;;;12.10;;
295;SDS011;132;48.770;9.200;2023-02-07T09:25:38;19.58;;;11.52;;
295;SDS011;132;48.770;9.200;2023-02-07T09:28:05;23.05;;;12.40;;
295;SDS011;132;48.770;9.200;2023-02-07T09:30:31;23.13;;;11.60;;
295;SDS011;132;48.770;9.200;2023-02-07T09:32:58;21.27;;;11.82;;
295;SDS011;132;48.770;9.200;2023-02-07T09:35:24;23.15;;;12.10;;
295;SDS011;132;48.770;9.200;2023-02-07T09:37:51;25.85;;;12.05;;
295;SDS011;132;48.770;9.200;2023-02-07T09:40:19;20.98;;;11.40;;
295;SDS011;132;48.770;9.200;2023-02-07T09:42:50;19.70;;;11.45;;
295;SDS011;132;48.770;9.200;2023-02-07T09:45:29;21.25;;;12.20;;
295;SDS011;132;48.770;9.200;2023-02-07T09:48:00;22.90;;;12.70;;
295;SDS011;132;48.770;9.200;2023-02-07T09:50:32;19.80;;;12.05;;
295;SDS011;132;48.770;9.200;2023-02-07T09:58:57;20.75;;;11.30;;
295;SDS011;132;48.770;9.200;2023-02-07T10:01:20;22.13;;;11.68;;
295;SDS011;132;48.770;9.200;2023-02-07T10:06:46;20.98;;;10.80;;
295;SDS011;132;48.770;9.200;2023-02-07T10:09:27;24.67;;;10.93;;
295;SDS011;132;48.770;9.200;2023-02-07T10:12:20;25.00;;;12.32;;
295;SDS011;132;48.770;9.200;2023-02-07T10:15:09;19.98;;;10.98;;
295;SDS011;132;48.770;9.200;2023-02-07T10:26:21;22.52;;;11.50;;
295;SDS011;132;48.770;9.200;2023-02-07T10:31:32;18.27;;;10.70;;
295;SDS011;132;48.770;9.200;2023-02-07T10:34:30;20.02;;;11.00;;
295;SDS011;132;48.770;9.200;2023-02-07T10:37:00;18.70;;;10.60;;
295;SDS011;132;48.770;9.200;2023-02-07T10:39:38;18.05;;;10.52;;
295;SDS011;132;48.770;9.200;2023-02-07T10:42:15;18.60;;;11.00;;
295;SDS011;132;48.770;9.200;2023-02-07T10:44:42;27.58;;;12.27;;
295;SDS011;132;48.770;9.200;2023-02-07T10:47:12;21.27;;;10.82;;
295;SDS011;132;48.770;9.200;2023-02-07T10:49:41;20.00;;;11.50;;
295;SDS011;132;48.770;9.200;2023-02-07T10:52:23;22.08;;;10.75;;
295;SDS011;132;48.770;9.200;2023-02-07T10:54:53;20.30;;;10.75;;
295;SDS011;132;48.770;9.200;2023-02-07T10:57:25;19.10;;;10.80;;
295;SDS011;132;48.770;9.200;2023-02-07T10:59:56;20.63;;;11.23;;
295;SDS011;132;48.770;9.200;2023-02-07T11:04:54;22.10;;;11.05;;
295;SDS011;132;48.770;9.200;2023-02-07T11:07:21;21.13;;;11.18;;
295;SDS011;132;48.770;9.200;2023-02-07T11:09:48;16.35;;;9.95;;
295;SDS011;132;48.770;9.200;2023-02-07T11:12:16;21.58;;;11.00;;
295;SDS011;132;48.770;9.200;2023-02-07T11:15:03;16.80;;;10.50;;
295;SDS011;132;48.770;9.200;2023-02-07T11:17:32;17.80;;;10.93;;
295;SDS011;132;48.770;9.200;2023-02-07T11:20:05;19.00;;;11.13;;
295;SDS011;132;48.770;9.200;2023-02-07T11:22:41;21.20;;;11.45;;
295;SDS011;132;48.770;9.200;2023-02-07T11:25:08;19.50;;;11.00;;
295;SDS011;132;48.770;9.200;2023-02-07T11:27:38;17.83;;;10.30;;
295;SDS011;132;48.770;9.200;2023-02-07T11:30:13;20.30;;;10.85;;
295;SDS011;132;48.770;9.200;2023-02-07T11:32:42;20.77;;;10.55;;
295;SDS011;132;48.770;9.200;2023-02-07T11:35:19;17.30;;;10.50;;
295;SDS011;132;48.770;9.200;2023-02-07T11:37:47;17.55;;;9.98;;
295;SDS011;132;48.770;9.200;2023-02-07T11:43:11;22.25;;;11.70;;
295;SDS011;132;48.770;9.200;2023-02-07T11:45:45;20.80;;;11.48;;
295;SDS011;132;48.770;9.200;2023-02-07T11:48:15;20.27;;;10.80;;
295;SDS011;132;48.770;9.200;2023-02-07T11:50:44;19.13;;;12.00;;
295;SDS011;132;48.770;9.200;2023-02-07T11:53:35;21.40;;;11.95;;
295;SDS011;132;48.770;9.200;2023-02-07T11:56:39;24.08;;;12.40;;
295;SDS011;132;48.770;9.200;2023-02-07T11:59:13;20.90;;;11.55;;
295;SDS011;132;48.770;9.200;2023-02-07T12:01:46;21.38;;;12.07;;
295;SDS011;132;48.770;9.200;2023-02-07T12:04:16;17.92;;;10.65;;
295;SDS011;132;48.770;9.200;2023-02-07T12:09:39;19.52;;;11.15;;
295;SDS011;132;48.770;9.200;2023-02-07T12:12:27;19.08;;;10.63;;
295;SDS011;132;48.770;9.200;2023-02-07T12:15:03;17.67;;;10.18;;
295;SDS011;132;48.770;9.200;2023-02-07T12:17:38;16.92;;;10.15;;
295;SDS011;132;48.770;9.200;2023-02-07T12:20:13;17.95;;;10.80;;
295;SDS011;132;48.770;9.200;2023-02-07T12:25:50;16.17;;;10.82;;
295;SDS011;132;48.770;9.200;2023-02-07T12:31:08;22.98;;;12.50;;
295;SDS011;132;48.770;9.200;2023-02-07T12:33:49;19.65;;;10.32;;
295;SDS011;132;48.770;9.200;2023-02-07T12:36:36;17.92;;;9.30;;
295;SDS011;132;48.770;9.200;2023-02-07T12:39:23;15.40;;;8.88;;
295;SDS011;132;48.770;9.200;2023-02-07T12:42:20;19.52;;;10.80;;
295;SDS011;132;48.770;9.200;2023-02-07T12:44:56;16.77;;;9.93;;
295;SDS011;132;48.770;9.200;2023-02-07T12:50:25;17.50;;;9.07;;
295;SDS011;132;48.770;9.200;2023-02-07T12:56:20;14.70;;;8.85;;
295;SDS011;132;48.770;9.200;2023-02-07T12:58:58;14.10;;;8.93;;
295;SDS011;132;48.770;9.200;2023-02-07T13:04:08;15.00;;;8.80;;
295;SDS011;132;48.770;9.200;2023-02-07T13:07:08;15.85;;;8.90;;
295;SDS011;132;48.770;9.200;2023-02-07T13:09:54;17.20;;;9.73;;
295;SDS011;132;48.770;9.200;2023-02-07T13:12:29;16.27;;;9.18;;
295;SDS011;132;48.770;9.200;2023-02-07T13:15:04;14.20;;;8.95;;
295;SDS011;132;48.770;9.200;2023-02-07T13:23:32;16.45;;;8.95;;
295;SDS011;132;48.770;9.200;2023-02-07T13:26:04;15.07;;;8.75;;
295;SDS011;132;48.770;9.200;2023-02-07T13:31:12;14.65;;;8.32;;
295;SDS011;132;48.770;9.200;2023-02-07T13:33:42;14.57;;;8.00;;
295;SDS011;132;48.770;9.200;2023-02-07T13:39:51;14.70;;;8.98;;
295;SDS011;132;48.770;9.200;2023-02-07T13:47:25;18.83;;;9.25;;
295;SDS011;132;48.770;9.200;2023-02-07T13:56:03;14.20;;;8.43;;
295;SDS011;132;48.770;9.200;2023-02-07T14:01:54;16.50;;;9.73;;
295;SDS011;132;48.770;9.200;2023-02-07T14:09:23;15.73;;;8.65;;
295;SDS011;132;48.770;9.200;2023-02-07T14:12:31;16.23;;;8.85;;
295;SDS011;132;48.770;9.200;2023-02-07T14:28:15;13.73;;;8.18;;
295;SDS011;132;48.770;9.200;2023-02-07T14:33:28;16.08;;;8.70;;
295;SDS011;132;48.770;9.200;2023-02-07T14:41:13;14.07;;;8.13;;
295;SDS011;132;48.770;9.200;2023-02-07T14:43:47;14.27;;;8.15;;
295;SDS011;132;48.770;9.200;2023-02-07T14:46:23;13.95;;;7.88;;
295;SDS011;132;48.770;9.200;2023-02-07T14:49:02;12.93;;;7.40;;
295;SDS011;132;48.770;9.200;2023-02-07T14:59:35;15.30;;;7.60;;
295;SDS011;132;48.770;9.200;2023-02-07T15:07:44;13.35;;;7.78;;
295;SDS011;132;48.770;9.200;2023-02-07T15:10:13;13.02;;;6.95;;
295;SDS011;132;48.770;9.200;2023-02-07T15:12:47;13.20;;;7.15;;
295;SDS011;132;48.770;9.200;2023-02-07T15:18:16;12.15;;;6.40;;
295;SDS011;132;48.770;9.200;2023-02-07T15:20:47;10.68;;;6.45;;
295;SDS011;132;48.770;9.200;2023-02-07T15:23:16;14.43;;;6.82;;
295;SDS011;132;48.770;9.200;2023-02-07T15:25:43;11.48;;;6.38;;
295;SDS011;132;48.770;9.200;2023-02-07T15:30:59;9.77;;;6.40;;
295;SDS011;132;48.770;9.200;2023-02-07T15:33:31;10.98;;;6.20;;
295;SDS011;132;48.770;9.200;2023-02-07T15:36:06;10.93;;;6.65;;
295;SDS011;132;48.770;9.200;2023-02-07T15:38:55;18.13;;;6.55;;
295;SDS011;132;48.770;9.200;2023-02-07T15:41:22;9.27;;;6.20;;
295;SDS011;132;48.770;9.200;2023-02-07T15:43:56;15.02;;;7.40;;
295;SDS011;132;48.770;9.200;2023-02-07T15:46:43;14.25;;;6.68;;
295;SDS011;132;48.770;9.200;2023-02-07T15:49:26;9.57;;;5.95;;
295;SDS011;132;48.770;9.200;2023-02-07T15:54:36;10.32;;;6.25;;
295;SDS011;132;48.770;9.200;2023-02-07T15:57:04;12.73;;;6.50;;
295;SDS011;132;48.770;9.200;2023-02-07T15:59:38;12.98;;;6.40;;
295;SDS011;132;48.770;9.200;2023-02-07T16:02:09;11.18;;;6.05;;
295;SDS011;132;48.770;9.200;2023-02-07T16:04:57;8.93;;;6.13;;
295;SDS011;132;48.770;9.200;2023-02-07T16:07:32;11.23;;;6.15;;
295;SDS011;132;48.770;9.200;2023-02-07T16:10:12;9.80;;;5.70;;
295;SDS011;132;48.770;9.200;2023-02-07T16:12:49;10.13;;;6.05;;
295;SDS011;132;48.770;9.200;2023-02-07T16:15:22;17.50;;;6.30;;
295;SDS011;132;48.770;9.200;2023-02-07T16:18:01;10.65;;;6.40;;
295;SDS011;132;48.770;9.200;2023-02-07T16:20:30;15.45;;;6.43;;
295;SDS011;132;48.770;9.200;2023-02-07T16:23:01;11.30;;;6.15;;
295;SDS011;132;48.770;9.200;2023-02-07T16:25:32;13.35;;;5.50;;
295;SDS011;132;48.770;9.200;2023-02-07T16:28:00;11.43;;;6.55;;
295;SDS011;132;48.770;9.200;2023-02-07T16:30:35;15.35;;;6.25;;
295;SDS011;132;48.770;9.200;2023-02-07T16:33:06;12.63;;;6.65;;
295;SDS011;132;48.770;9.200;2023-02-07T16:35:36;11.32;;;6.05;;
295;SDS011;132;48.770;9.200;2023-02-07T16:38:02;10.18;;;5.50;;
295;SDS011;132;48.770;9.200;2023-02-07T16:40:29;10.13;;;6.25;;
295;SDS011;132;48.770;9.200;2023-02-07T16:42:55;11.32;;;5.65;;
295;SDS011;132;48.770;9.200;2023-02-07T16:45:26;12.13;;;5.45;;
295;SDS011;132;48.770;9.200;2023-02-07T16:47:54;11.60;;;6.10;;
295;SDS011;132;48.770;9.200;2023-02-07T16:50:23;12.43;;;6.25;;
295;SDS011;132;48.770;9.200;2023-02-07T16:52:51;13.02;;;6.32;;
295;SDS011;132;48.770;9.200;2023-02-07T16:55:22;11.50;;;6.50;;
295;SDS011;132;48.770;9.200;2023-02-07T16:57:51;11.48;;;6.50;;
295;SDS011;132;48.770;9.200;2023-02-07T17:00:19;12.07;;;6.35;;
295;SDS011;132;48.770;9.200;2023-02-07T17:02:49;13.07;;;7.00;;
295;SDS011;132;48.770;9.200;2023-02-07T17:05:17;11.23;;;6.65;;
295;SDS011;132;48.770;9.200;2023-02-07T17:07:45;9.07;;;6.00;;
295;SDS011;132;48.770;9.200;2023-02-07T17:10:20;12.77;;;6.85;;
295;SDS011;132;48.770;9.200;2023-02-07T17:12:49;11.02;;;6.30;;
295;SDS011;132;48.770;9.200;2023-02-07T17:15:16;14.82;;;7.30;;
295;SDS011;132;48.770;9.200;2023-02-07T17:17:42;14.43;;;6.97;;
295;SDS011;132;48.770;9.200;2023-02-07T17:20:25;15.38;;;7.35;;
295;SDS011;132;48.770;9.200;2023-02-07T17:22:53;14.95;;;6.95;;
295;SDS011;132;48.770;9.200;2023-02-07T17:25:21;16.90;;;7.10;;
295;SDS011;132;48.770;9.200;2023-02-07T17:27:50;19.58;;;8.50;;
295;SDS011;132;48.770;9.200;2023-02-07T17:30:18;32.03;;;11.15;;
295;SDS011;132;48.770;9.200;2023-02-07T17:32:52;24.10;;;10.60;;
295;SDS011;132;48.770;9.200;2023-02-07T17:35:19;24.10;;;9.98;;
295;SDS011;132;48.770;9.200;2023-02-07T17:37:45;26.92;;;10.18;;
295;SDS011;132;48.770;9.200;2023-02-07T17:42:48;23.02;;;9.40;;
295;SDS011;132;48.770;9.200;2023-02-07T17:45:14;17.83;;;8.30;;
295;SDS011;132;48.770;9.200;2023-02-07T17:47:41;16.80;;;8.13;;
295;SDS011;132;48.770;9.200;2023-02-07T17:50:17;14.85;;;7.53;;
295;SDS011;132;48.770;9.200;2023-02-07T17:52:46;14.73;;;7.68;;
295;SDS011;132;48.770;9.200;2023-02-07T17:55:13;16.45;;;7.90;;
295;SDS011;132;48.770;9.200;2023-02-07T17:57:39;13.43;;;7.38;;
295;SDS011;132;48.770;9.200;2023-02-07T18:00:14;15.75;;;8.13;;
295;SDS011;132;48.770;9.200;2023-02-07T18:02:43;14.60;;;7.90;;
295;SDS011;132;48.770;9.200;2023-02-07T18:05:09;16.60;;;8.05;;
295;SDS011;132;48.770;9.200;2023-02-07T18:07:36;17.67;;;8.43;;
295;SDS011;132;48.770;9.200;2023-02-07T18:10:03;12.68;;;7.78;;
295;SDS011;132;48.770;9.200;2023-02-07T18:12:32;15.02;;;8.18;;